WetterOnline ( https://www.wetteronline.de )

Wetter aktuell Halle (Saale)

Aktuelles Wetter: Leipzig/Halle (136m)

6-stündlich | Neueste Meldungen
Ortszeit Temperatur Wetter
Mo, 19.10. 20:00 8.7° C wolkig
Mo, 19.10. 14:00 11.3° C bewölkt
Mo, 19.10. 8:00 7.9° C leichter Regen
Mo, 19.10. 2:00 7.7° C leichter Regen
So, 18.10. 20:00 9.3° C bewölkt
So, 18.10. 14:00 10.3° C bedeckt
So, 18.10. 8:00 7.4° C bedeckt
So, 18.10. 2:00 6.2° C leicht bewölkt
Ortszeit Temperatur Wetter
Di, 20.10. 0:00 6.0° C wolkenlos
Mo, 19.10. 23:50 6.0° C wolkig
Mo, 19.10. 23:40 5.9° C wolkig
Mo, 19.10. 23:30 5.7° C wolkig
Mo, 19.10. 23:20 5.7° C wolkig
Mo, 19.10. 23:10 5.8° C wolkig
Mo, 19.10. 23:00 5.6° C wolkenlos
Mo, 19.10. 22:30 5.9° C wolkig
Mo, 19.10. 22:00 6.1° C wolkenlos
Mo, 19.10. 21:30 6.7° C wolkig
Mo, 19.10. 21:00 6.6° C leicht bewölkt
Ortszeit Relative Feuchte Sichtweite
Mo, 19.10. 20:00 82% 30 km
Mo, 19.10. 14:00 74% 22 km
Mo, 19.10. 8:00 91% 6 km
Mo, 19.10. 2:00 91% 12 km
So, 18.10. 20:00 78% 35 km
So, 18.10. 14:00 75% 30 km
So, 18.10. 8:00 93% 9 km
So, 18.10. 2:00 99% 12 km
Ortszeit Relative Feuchte Sichtweite
Di, 20.10. 0:00 80% 30 km
Mo, 19.10. 23:50 80% -
Mo, 19.10. 23:40 82% -
Mo, 19.10. 23:30 84% 24 km
Mo, 19.10. 23:20 84% -
Mo, 19.10. 23:10 85% -
Mo, 19.10. 23:00 86% 30 km
Mo, 19.10. 22:30 84% 29 km
Mo, 19.10. 22:00 83% 35 km
Mo, 19.10. 21:30 83% 29 km
Mo, 19.10. 21:00 84% 35 km
Ortszeit Niederschlagsmenge Niederschlagsart
Mo, 19.10. 20:00 0.1 l/m2 in 12 Std. -
Mo, 19.10. 14:00 0.1 l/m2 in 6 Std. Regen
Mo, 19.10. 8:00 0.1 l/m2 in 12 Std. Regen
Mo, 19.10. 2:00 0.1 l/m2 in 6 Std. Regen
So, 18.10. 20:00 0.1 l/m2 in 12 Std. Regen
So, 18.10. 14:00 0.0 l/m2 in 6 Std. -
So, 18.10. 8:00 0.0 l/m2 in 12 Std. -
So, 18.10. 2:00 0.0 l/m2 in 6 Std. -
Ortszeit Niederschlagsmenge Niederschlagsart
Di, 20.10. 0:00 0.0 l/m2 in 1 Std. -
Mo, 19.10. 23:50 keine Meldung -
Mo, 19.10. 23:40 keine Meldung -
Mo, 19.10. 23:30 0.0 l/m2 in 1 Std. -
Mo, 19.10. 23:20 keine Meldung -
Mo, 19.10. 23:10 keine Meldung -
Mo, 19.10. 23:00 0.0 l/m2 in 1 Std. -
Mo, 19.10. 22:30 0.0 l/m2 in 1 Std. -
Mo, 19.10. 22:00 0.0 l/m2 in 1 Std. -
Mo, 19.10. 21:30 0.0 l/m2 in 1 Std. -
Mo, 19.10. 21:00 0.0 l/m2 in 1 Std. -
Ortszeit Stärke Spitze Richtung
km/h Bft. km/h Grad Sektor
Mo, 19.10. 20:00 11 2 22 180° S
Mo, 19.10. 14:00 15 3 24 240° SW
Mo, 19.10. 8:00 11 2 20 250° W
Mo, 19.10. 2:00 13 3 28 250° W
So, 18.10. 20:00 18 3 47 250° W
So, 18.10. 14:00 33 5 44 260° W
So, 18.10. 8:00 18 3 25 250° W
So, 18.10. 2:00 11 2 17 260° W
Ortszeit Stärke Spitze Richtung
km/h Bft. km/h Grad Sektor
Di, 20.10. 0:00 11 2 19 180° S
Mo, 19.10. 23:50 11 2 - 180° S
Mo, 19.10. 23:40 13 3 - 180° S
Mo, 19.10. 23:30 13 3 19 180° S
Mo, 19.10. 23:20 13 3 - 180° S
Mo, 19.10. 23:10 14 3 - 180° S
Mo, 19.10. 23:00 13 3 17 180° S
Mo, 19.10. 22:30 13 3 15 180° S
Mo, 19.10. 22:00 11 2 18 190° S
Mo, 19.10. 21:30 11 2 18 170° S
Mo, 19.10. 21:00 13 3 19 180° S
Ortszeit Untergrenze Bedeckung Gattung
total tief tief mittel hoch
Mo, 19.10. 20:00 2100 m 6/8 6/8 Sc - -
Mo, 19.10. 14:00 600 m 7/8 7/8 Cu - -
Mo, 19.10. 8:00 750 m 7/8 7/8 Cu - -
Mo, 19.10. 2:00 1500 m 7/8 7/8 Sc - -
So, 18.10. 20:00 1200 m 7/8 7/8 Sc - -
So, 18.10. 14:00 1500 m 8/8 7/8 Sc - -
So, 18.10. 8:00 1500 m 8/8 7/8 Sc - -
So, 18.10. 2:00 450 m 3/8 3/8 Sc - -
Ortszeit Bedeckungsgrad in Achtel und Wolkenuntergrenze
Di, 20.10. 0:00 keine Wolken
Mo, 19.10. 23:50 8(9000m)
Mo, 19.10. 23:40 8(9000m)
Mo, 19.10. 23:30 8(9000m)
Mo, 19.10. 23:20 8(9000m)
Mo, 19.10. 23:10 8(9000m) 8(10500m)
Mo, 19.10. 23:00 8(9000m) 8(10500m)
Mo, 19.10. 22:30 7(9000m)
Mo, 19.10. 22:00 8(9000m)
Mo, 19.10. 21:30 7(10500m)
Mo, 19.10. 21:00 2(2100m) 2(10500m)
Ortszeit Luftdruck NN (hPa) Tendenz (hPa in 3 Std.)
Mo, 19.10. 20:00 1023 - 0,1
Mo, 19.10. 14:00 1023 - 0,3
Mo, 19.10. 8:00 1023 + 0,4
Mo, 19.10. 2:00 1022 + 0,6
So, 18.10. 20:00 1021 + 1,0
So, 18.10. 14:00 1020 - 0,4
So, 18.10. 8:00 1019 0,0
So, 18.10. 2:00 1019 - 0,3
Ortszeit Luftdruck NN (hPa) Tendenz (hPa in 3 Std.)
Di, 20.10. 0:00 1022 - 0,3
Mo, 19.10. 23:50 1022 keine Meldung
Mo, 19.10. 23:40 1022 keine Meldung
Mo, 19.10. 23:30 1023 0,0
Mo, 19.10. 23:20 1023 keine Meldung
Mo, 19.10. 23:10 1023 keine Meldung
Mo, 19.10. 23:00 1023 0,0
Mo, 19.10. 22:30 1023 - 0,2
Mo, 19.10. 22:00 1023 - 0,1
Mo, 19.10. 21:30 1022 - 0,6
Mo, 19.10. 21:00 1023 - 0,3
Ortszeit Schneehöhe (cm)
Mo, 19.10. 20:00 0
Mo, 19.10. 14:00 0
Mo, 19.10. 8:00 0
Mo, 19.10. 2:00 0
So, 18.10. 20:00 0
So, 18.10. 14:00 0
So, 18.10. 8:00 0
So, 18.10. 2:00 0
Ortszeit Schneehöhe (cm)
Di, 20.10. 0:00 0
Mo, 19.10. 23:50 0
Mo, 19.10. 23:40 0
Mo, 19.10. 23:30 0
Mo, 19.10. 23:20 0
Mo, 19.10. 23:10 0
Mo, 19.10. 23:00 0
Mo, 19.10. 22:30 0
Mo, 19.10. 22:00 0
Mo, 19.10. 21:30 0
Mo, 19.10. 21:00 0
Link zu dieser Seite / Seite empfehlen

Das Wetter in ...